2009 LIN (2009092S15178)


On this page: IBTrACS data - Map and Plots - Positions - Intensities - Original source data

Summary

Start Apr 2
End Apr 6
Basin SP
LMI 60 kt
Sources jtwc_sh
nadi
wellington
In WMO? Yes
Previous storm 2009 IZILDA (SI)
Previous in basin 2009 JASPER (SP)
Concurrent storms 2009 LIN (SP)
2009 JADE (SI)
Next in basin Missing
Next storm 2009 JADE (SI)

top of page IBTrACS Data: File Access

No storm imagery available

top of page Plots:

Map of storm track will not appear if FTP is down
Time series of cyclone Maximum Sustained Wind will not appear if FTP is down
Time series of cyclone Minimum Central Pressure will not appear if FTP is down

top of page Track Data:Position

jtwc_sh nadi wellington
Date Lat Lon Lat Lon Lat Lon
2009-04-02 00:00:00 -15.2 178.3
2009-04-02 06:00:00 -14.9 178.1
2009-04-02 12:00:00 -14.6 178.2
2009-04-02 18:00:00 -14.4 178.5
2009-04-03 00:00:00 -14.5 178.8
2009-04-03 06:00:00 -15.5 -177.6 -15.1 179.7
2009-04-03 12:00:00 -15.8 -177.1 -15.7 -178.9
2009-04-03 18:00:00 -16.6 -176.7 -16.6 -176.4
2009-04-04 00:00:00 -17.5 -176.5 -18.0 -175.7
2009-04-04 06:00:00 -18.4 -176.0 -18.8 -175.5
2009-04-04 12:00:00 -19.3 -176.0 -19.5 -175.5
2009-04-04 18:00:00 -20.3 -175.7 -20.5 -175.4
2009-04-05 00:00:00 -21.6 -175.4 -21.4 -175.2
2009-04-05 06:00:00 -22.8 -174.9 -23.1 -174.9
2009-04-05 12:00:00 -24.2 -174.3 -24.2 -174.6
2009-04-05 18:00:00 -25.7 -173.5 -25.2 -174.2 -25.2 -174.2
2009-04-06 00:00:00 -27.1 -172.5 -26.3 -173.1
2009-04-06 06:00:00 -28.5 -171.1
2009-04-06 12:00:00 -30.2 -169.8
2009-04-06 18:00:00 -31.8 -168.0

top of pageTrack Data:Intensity

jtwc_sh nadi wellington
Date Wind Pres Wind Pres Wind Pres
2009-04-02 00:00:00 20. 1002.
2009-04-02 06:00:00 20. 1002.
2009-04-02 12:00:00 20. 1002.
2009-04-02 18:00:00 25. 1000.
2009-04-03 00:00:00 25. 1000.
2009-04-03 06:00:00 20. 1007. 25. 999.
2009-04-03 12:00:00 25. 1004. 30. 997.
2009-04-03 18:00:00 25. 1004. 35. 995.
2009-04-04 00:00:00 30. 1000. 40. 990.
2009-04-04 06:00:00 40. 993. 50. 985.
2009-04-04 12:00:00 45. 989. 50. 980.
2009-04-04 18:00:00 50. 985. 50. 980.
2009-04-05 00:00:00 55. 982. 60. 975.
2009-04-05 06:00:00 50. 985. 60. 975.
2009-04-05 12:00:00 50. 985. 50. 985.
2009-04-05 18:00:00 40. 993. 45. 987. 45. 987.
2009-04-06 00:00:00 30. 1000. 40. 988.
2009-04-06 06:00:00 25. 1004.
2009-04-06 12:00:00 25. 1004.
2009-04-06 18:00:00 20. 1007.

top of page Links to source data

Source Source file Format
jtwc_sh bsh252009.txt ATCF
nadi RSMC-Nadi-2008-09-BT-Data.txt:Line=82:LIN Text table
wellington TC_BT_2006-2009.csv:Line=279:LIN Text table